sensor_id;sensor_type;location;lat;lon;timestamp;pressure;altitude;pressure_sealevel;temperature;humidity
59154;BME280;44935;48.944;9.418;2022-08-19T00:01:57;98193.35;;;23.49;42.84
59154;BME280;44935;48.944;9.418;2022-08-19T00:04:27;98189.81;;;23.17;43.26
59154;BME280;44935;48.944;9.418;2022-08-19T00:06:54;98193.33;;;23.38;43.55
59154;BME280;44935;48.944;9.418;2022-08-19T00:09:22;98193.61;;;23.09;42.94
59154;BME280;44935;48.944;9.418;2022-08-19T00:11:51;98203.42;;;22.95;43.36
59154;BME280;44935;48.944;9.418;2022-08-19T00:14:19;98201.15;;;22.84;43.59
59154;BME280;44935;48.944;9.418;2022-08-19T00:16:47;98200.83;;;22.42;44.33
59154;BME280;44935;48.944;9.418;2022-08-19T00:19:15;98195.85;;;22.58;44.11
59154;BME280;44935;48.944;9.418;2022-08-19T00:21:42;98195.62;;;23.01;43.77
59154;BME280;44935;48.944;9.418;2022-08-19T00:24:12;98198.88;;;23.34;43.08
59154;BME280;44935;48.944;9.418;2022-08-19T00:26:40;98206.53;;;22.95;43.20
59154;BME280;44935;48.944;9.418;2022-08-19T00:29:10;98204.24;;;23.08;43.66
59154;BME280;44935;48.944;9.418;2022-08-19T00:31:38;98199.21;;;23.05;43.50
59154;BME280;44935;48.944;9.418;2022-08-19T00:34:05;98198.28;;;23.00;43.53
59154;BME280;44935;48.944;9.418;2022-08-19T00:36:32;98203.22;;;23.10;43.23
59154;BME280;44935;48.944;9.418;2022-08-19T00:38:59;98199.41;;;23.43;43.20
59154;BME280;44935;48.944;9.418;2022-08-19T00:41:26;98192.46;;;23.17;42.72
59154;BME280;44935;48.944;9.418;2022-08-19T00:43:58;98185.78;;;23.39;42.42
59154;BME280;44935;48.944;9.418;2022-08-19T00:46:26;98174.28;;;23.64;42.09
59154;BME280;44935;48.944;9.418;2022-08-19T00:48:54;98165.99;;;23.56;42.01
59154;BME280;44935;48.944;9.418;2022-08-19T00:51:22;98169.35;;;23.52;42.44
59154;BME280;44935;48.944;9.418;2022-08-19T00:53:48;98177.04;;;23.26;42.95
59154;BME280;44935;48.944;9.418;2022-08-19T00:56:16;98183.65;;;23.07;43.33
59154;BME280;44935;48.944;9.418;2022-08-19T00:58:43;98183.85;;;23.22;43.23
59154;BME280;44935;48.944;9.418;2022-08-19T01:01:11;98186.80;;;23.42;42.92
59154;BME280;44935;48.944;9.418;2022-08-19T01:03:37;98192.83;;;23.34;42.83
59154;BME280;44935;48.944;9.418;2022-08-19T01:06:05;98192.23;;;23.08;43.26
59154;BME280;44935;48.944;9.418;2022-08-19T01:08:33;98192.85;;;23.59;42.96
59154;BME280;44935;48.944;9.418;2022-08-19T01:11:00;98192.77;;;23.35;42.43
59154;BME280;44935;48.944;9.418;2022-08-19T01:13:31;98196.80;;;23.92;41.97
59154;BME280;44935;48.944;9.418;2022-08-19T01:16:01;98191.66;;;24.00;41.30
59154;BME280;44935;48.944;9.418;2022-08-19T01:18:29;98193.78;;;24.05;41.40
59154;BME280;44935;48.944;9.418;2022-08-19T01:21:00;98193.16;;;24.37;40.63
59154;BME280;44935;48.944;9.418;2022-08-19T01:23:28;98192.62;;;24.45;40.99
59154;BME280;44935;48.944;9.418;2022-08-19T01:25:55;98189.29;;;24.17;40.95
59154;BME280;44935;48.944;9.418;2022-08-19T01:28:25;98189.02;;;23.66;41.83
59154;BME280;44935;48.944;9.418;2022-08-19T01:30:53;98184.17;;;22.87;42.95
59154;BME280;44935;48.944;9.418;2022-08-19T01:33:21;98184.84;;;23.18;42.28
59154;BME280;44935;48.944;9.418;2022-08-19T01:35:49;98187.26;;;22.88;43.05
59154;BME280;44935;48.944;9.418;2022-08-19T01:38:22;98189.49;;;23.79;41.27
59154;BME280;44935;48.944;9.418;2022-08-19T01:40:50;98180.00;;;23.96;40.65
59154;BME280;44935;48.944;9.418;2022-08-19T01:43:17;98178.63;;;24.01;40.81
59154;BME280;44935;48.944;9.418;2022-08-19T01:45:44;98177.61;;;24.01;41.11
59154;BME280;44935;48.944;9.418;2022-08-19T01:48:12;98183.04;;;24.55;40.59
59154;BME280;44935;48.944;9.418;2022-08-19T01:50:39;98188.55;;;23.98;41.15
59154;BME280;44935;48.944;9.418;2022-08-19T01:53:10;98192.21;;;24.22;40.71
59154;BME280;44935;48.944;9.418;2022-08-19T01:55:40;98189.97;;;22.36;43.75
59154;BME280;44935;48.944;9.418;2022-08-19T01:58:11;98181.88;;;24.04;40.99
59154;BME280;44935;48.944;9.418;2022-08-19T02:00:39;98181.32;;;24.44;40.46
59154;BME280;44935;48.944;9.418;2022-08-19T02:03:06;98179.34;;;24.00;41.52
59154;BME280;44935;48.944;9.418;2022-08-19T02:05:33;98179.53;;;23.61;42.46
59154;BME280;44935;48.944;9.418;2022-08-19T02:08:00;98179.18;;;23.58;42.27
59154;BME280;44935;48.944;9.418;2022-08-19T02:10:27;98187.57;;;23.86;41.69
59154;BME280;44935;48.944;9.418;2022-08-19T02:12:54;98189.93;;;24.12;41.16
59154;BME280;44935;48.944;9.418;2022-08-19T02:15:21;98191.57;;;23.90;41.52
59154;BME280;44935;48.944;9.418;2022-08-19T02:17:48;98187.47;;;23.72;42.60
59154;BME280;44935;48.944;9.418;2022-08-19T02:20:16;98183.44;;;23.26;42.50
59154;BME280;44935;48.944;9.418;2022-08-19T02:22:43;98184.28;;;23.10;42.80
59154;BME280;44935;48.944;9.418;2022-08-19T02:25:11;98190.73;;;23.44;42.94
59154;BME280;44935;48.944;9.418;2022-08-19T02:27:40;98196.78;;;23.28;43.27
59154;BME280;44935;48.944;9.418;2022-08-19T02:30:11;98204.27;;;22.61;44.66
59154;BME280;44935;48.944;9.418;2022-08-19T02:32:38;98206.44;;;22.71;45.22
59154;BME280;44935;48.944;9.418;2022-08-19T02:35:06;98209.42;;;22.12;45.48
59154;BME280;44935;48.944;9.418;2022-08-19T02:37:34;98211.41;;;22.22;45.39
59154;BME280;44935;48.944;9.418;2022-08-19T02:40:02;98211.94;;;22.46;45.35
59154;BME280;44935;48.944;9.418;2022-08-19T02:42:29;98208.52;;;22.39;44.91
59154;BME280;44935;48.944;9.418;2022-08-19T02:44:56;98201.28;;;22.54;45.46
59154;BME280;44935;48.944;9.418;2022-08-19T02:47:23;98198.96;;;22.21;45.02
59154;BME280;44935;48.944;9.418;2022-08-19T02:49:50;98197.07;;;22.06;45.00
59154;BME280;44935;48.944;9.418;2022-08-19T02:52:17;98201.16;;;22.44;45.17
59154;BME280;44935;48.944;9.418;2022-08-19T02:54:44;98198.09;;;22.24;44.67
59154;BME280;44935;48.944;9.418;2022-08-19T02:57:11;98193.53;;;22.98;44.00
59154;BME280;44935;48.944;9.418;2022-08-19T02:59:38;98191.34;;;21.30;46.51
59154;BME280;44935;48.944;9.418;2022-08-19T03:02:05;98186.30;;;22.62;44.49
59154;BME280;44935;48.944;9.418;2022-08-19T03:04:32;98175.03;;;23.11;43.45
59154;BME280;44935;48.944;9.418;2022-08-19T03:06:58;98175.40;;;23.25;43.60
59154;BME280;44935;48.944;9.418;2022-08-19T03:09:26;98179.79;;;23.18;43.56
59154;BME280;44935;48.944;9.418;2022-08-19T03:11:53;98178.72;;;22.99;43.40
59154;BME280;44935;48.944;9.418;2022-08-19T03:14:20;98182.21;;;23.43;43.07
59154;BME280;44935;48.944;9.418;2022-08-19T03:16:52;98188.00;;;23.84;42.55
59154;BME280;44935;48.944;9.418;2022-08-19T03:19:20;98191.55;;;23.62;42.89
59154;BME280;44935;48.944;9.418;2022-08-19T03:21:47;98196.44;;;23.45;42.63
59154;BME280;44935;48.944;9.418;2022-08-19T03:24:16;98195.33;;;23.61;42.23
59154;BME280;44935;48.944;9.418;2022-08-19T03:26:45;98195.01;;;23.26;42.54
59154;BME280;44935;48.944;9.418;2022-08-19T03:29:13;98194.22;;;22.93;42.98
59154;BME280;44935;48.944;9.418;2022-08-19T03:31:42;98204.44;;;22.69;43.77
59154;BME280;44935;48.944;9.418;2022-08-19T03:34:10;98214.00;;;22.42;44.28
59154;BME280;44935;48.944;9.418;2022-08-19T03:36:38;98212.94;;;21.95;44.99
59154;BME280;44935;48.944;9.418;2022-08-19T03:39:05;98211.15;;;22.09;45.00
59154;BME280;44935;48.944;9.418;2022-08-19T03:41:36;98204.94;;;22.05;44.89
59154;BME280;44935;48.944;9.418;2022-08-19T03:44:04;98206.74;;;21.98;45.23
59154;BME280;44935;48.944;9.418;2022-08-19T03:46:32;98206.40;;;22.21;45.00
59154;BME280;44935;48.944;9.418;2022-08-19T03:49:01;98208.26;;;22.65;44.47
59154;BME280;44935;48.944;9.418;2022-08-19T03:51:30;98202.17;;;22.62;44.29
59154;BME280;44935;48.944;9.418;2022-08-19T03:54:00;98202.37;;;22.01;44.73
59154;BME280;44935;48.944;9.418;2022-08-19T03:56:28;98201.23;;;22.55;44.40
59154;BME280;44935;48.944;9.418;2022-08-19T03:58:56;98193.73;;;19.81;49.91
59154;BME280;44935;48.944;9.418;2022-08-19T04:01:26;98202.97;;;21.85;45.66
59154;BME280;44935;48.944;9.418;2022-08-19T04:03:55;98207.40;;;22.65;44.18
59154;BME280;44935;48.944;9.418;2022-08-19T04:06:24;98211.97;;;22.20;44.89
59154;BME280;44935;48.944;9.418;2022-08-19T04:08:53;98207.28;;;22.00;45.12
59154;BME280;44935;48.944;9.418;2022-08-19T04:11:22;98204.43;;;22.15;45.03
59154;BME280;44935;48.944;9.418;2022-08-19T04:13:52;98199.55;;;22.42;44.63
59154;BME280;44935;48.944;9.418;2022-08-19T04:16:21;98202.36;;;22.32;44.86
59154;BME280;44935;48.944;9.418;2022-08-19T04:18:49;98202.35;;;22.99;43.73
59154;BME280;44935;48.944;9.418;2022-08-19T04:21:18;98199.76;;;23.23;43.04
59154;BME280;44935;48.944;9.418;2022-08-19T04:23:46;98200.10;;;22.97;43.68
59154;BME280;44935;48.944;9.418;2022-08-19T04:26:15;98199.25;;;22.92;43.58
59154;BME280;44935;48.944;9.418;2022-08-19T04:28:43;98200.22;;;23.26;43.14
59154;BME280;44935;48.944;9.418;2022-08-19T04:31:14;98200.77;;;23.26;42.77
59154;BME280;44935;48.944;9.418;2022-08-19T04:33:41;98196.88;;;23.59;42.62
59154;BME280;44935;48.944;9.418;2022-08-19T04:36:16;98191.92;;;23.31;42.39
59154;BME280;44935;48.944;9.418;2022-08-19T04:38:44;98189.80;;;23.26;42.96
59154;BME280;44935;48.944;9.418;2022-08-19T04:41:10;98191.69;;;23.24;43.01
59154;BME280;44935;48.944;9.418;2022-08-19T04:43:38;98197.40;;;21.94;45.35
59154;BME280;44935;48.944;9.418;2022-08-19T04:46:06;98198.42;;;22.69;43.84
59154;BME280;44935;48.944;9.418;2022-08-19T04:48:33;98204.71;;;22.99;43.83
59154;BME280;44935;48.944;9.418;2022-08-19T04:51:00;98203.21;;;22.98;43.23
59154;BME280;44935;48.944;9.418;2022-08-19T04:53:30;98201.09;;;22.68;43.86
59154;BME280;44935;48.944;9.418;2022-08-19T04:55:59;98197.98;;;22.48;44.16
59154;BME280;44935;48.944;9.418;2022-08-19T04:58:27;98197.56;;;22.46;44.10
59154;BME280;44935;48.944;9.418;2022-08-19T05:00:55;98198.46;;;22.79;44.15
59154;BME280;44935;48.944;9.418;2022-08-19T05:03:22;98201.95;;;22.62;44.46
59154;BME280;44935;48.944;9.418;2022-08-19T05:05:49;98205.52;;;23.21;43.83
59154;BME280;44935;48.944;9.418;2022-08-19T05:08:20;98213.61;;;22.96;43.96
59154;BME280;44935;48.944;9.418;2022-08-19T05:10:48;98218.41;;;22.78;44.52
59154;BME280;44935;48.944;9.418;2022-08-19T05:13:17;98221.99;;;22.99;44.01
59154;BME280;44935;48.944;9.418;2022-08-19T05:15:54;98230.91;;;22.76;43.86
59154;BME280;44935;48.944;9.418;2022-08-19T05:18:21;98235.88;;;22.95;44.38
59154;BME280;44935;48.944;9.418;2022-08-19T05:20:48;98241.47;;;22.62;44.39
59154;BME280;44935;48.944;9.418;2022-08-19T05:23:15;98247.63;;;22.90;44.15
59154;BME280;44935;48.944;9.418;2022-08-19T05:25:42;98254.69;;;22.49;44.74
59154;BME280;44935;48.944;9.418;2022-08-19T05:28:10;98258.44;;;22.90;44.26
59154;BME280;44935;48.944;9.418;2022-08-19T05:30:36;98267.95;;;23.30;43.38
59154;BME280;44935;48.944;9.418;2022-08-19T05:33:04;98275.61;;;23.18;43.58
59154;BME280;44935;48.944;9.418;2022-08-19T05:35:31;98285.74;;;22.71;44.14
59154;BME280;44935;48.944;9.418;2022-08-19T05:37:58;98290.78;;;22.96;43.83
59154;BME280;44935;48.944;9.418;2022-08-19T05:40:25;98294.27;;;22.60;44.41
59154;BME280;44935;48.944;9.418;2022-08-19T05:42:52;98298.73;;;22.73;44.36
59154;BME280;44935;48.944;9.418;2022-08-19T05:45:19;98300.46;;;22.79;44.32
59154;BME280;44935;48.944;9.418;2022-08-19T05:47:47;98304.42;;;22.82;44.25
59154;BME280;44935;48.944;9.418;2022-08-19T05:50:14;98304.42;;;22.48;44.79
59154;BME280;44935;48.944;9.418;2022-08-19T05:52:41;98307.31;;;22.77;44.37
59154;BME280;44935;48.944;9.418;2022-08-19T05:55:08;98305.65;;;22.74;44.33
59154;BME280;44935;48.944;9.418;2022-08-19T05:57:35;98304.74;;;22.02;45.50
59154;BME280;44935;48.944;9.418;2022-08-19T06:00:04;98308.10;;;22.33;44.82
59154;BME280;44935;48.944;9.418;2022-08-19T06:02:32;98309.30;;;22.46;44.79
59154;BME280;44935;48.944;9.418;2022-08-19T06:04:58;98315.58;;;22.14;45.60
59154;BME280;44935;48.944;9.418;2022-08-19T06:07:25;98315.38;;;22.31;45.66
59154;BME280;44935;48.944;9.418;2022-08-19T06:09:53;98314.33;;;22.37;45.44
59154;BME280;44935;48.944;9.418;2022-08-19T06:12:20;98314.70;;;22.52;44.45
59154;BME280;44935;48.944;9.418;2022-08-19T06:14:48;98314.36;;;22.15;45.53
59154;BME280;44935;48.944;9.418;2022-08-19T06:17:14;98314.68;;;22.52;45.04
59154;BME280;44935;48.944;9.418;2022-08-19T06:19:41;98314.94;;;22.93;43.93
59154;BME280;44935;48.944;9.418;2022-08-19T06:22:08;98311.05;;;22.79;44.35
59154;BME280;44935;48.944;9.418;2022-08-19T06:24:35;98309.87;;;23.20;43.68
59154;BME280;44935;48.944;9.418;2022-08-19T06:27:03;98308.39;;;22.62;44.42
59154;BME280;44935;48.944;9.418;2022-08-19T06:29:30;98308.70;;;23.09;43.67
59154;BME280;44935;48.944;9.418;2022-08-19T06:31:59;98304.80;;;23.20;43.43
59154;BME280;44935;48.944;9.418;2022-08-19T06:34:28;98302.67;;;23.16;43.51
59154;BME280;44935;48.944;9.418;2022-08-19T06:36:58;98303.77;;;23.49;42.83
59154;BME280;44935;48.944;9.418;2022-08-19T06:39:28;98302.84;;;23.77;42.30
59154;BME280;44935;48.944;9.418;2022-08-19T06:41:58;98304.19;;;23.17;43.31
59154;BME280;44935;48.944;9.418;2022-08-19T06:44:27;98307.56;;;21.93;45.58
59154;BME280;44935;48.944;9.418;2022-08-19T06:46:55;98307.97;;;22.87;43.87
59154;BME280;44935;48.944;9.418;2022-08-19T06:49:23;98301.60;;;23.43;43.47
59154;BME280;44935;48.944;9.418;2022-08-19T06:51:50;98298.78;;;22.90;43.52
59154;BME280;44935;48.944;9.418;2022-08-19T06:54:18;98295.77;;;22.82;43.43
59154;BME280;44935;48.944;9.418;2022-08-19T06:56:46;98302.86;;;22.72;43.46
59154;BME280;44935;48.944;9.418;2022-08-19T06:59:16;98305.31;;;22.70;43.15
59154;BME280;44935;48.944;9.418;2022-08-19T07:01:46;98309.48;;;23.66;42.49
59154;BME280;44935;48.944;9.418;2022-08-19T07:04:15;98313.01;;;23.36;43.13
59154;BME280;44935;48.944;9.418;2022-08-19T07:06:42;98314.66;;;22.05;45.17
59154;BME280;44935;48.944;9.418;2022-08-19T07:09:11;98314.39;;;23.30;43.50
59154;BME280;44935;48.944;9.418;2022-08-19T07:11:38;98316.06;;;22.25;45.49
59154;BME280;44935;48.944;9.418;2022-08-19T07:14:06;98320.78;;;22.17;45.62
59154;BME280;44935;48.944;9.418;2022-08-19T07:16:33;98321.24;;;22.02;46.06
59154;BME280;44935;48.944;9.418;2022-08-19T07:19:00;98321.87;;;22.20;45.92
59154;BME280;44935;48.944;9.418;2022-08-19T07:21:28;98320.81;;;21.73;47.00
59154;BME280;44935;48.944;9.418;2022-08-19T07:23:56;98320.08;;;22.27;45.65
59154;BME280;44935;48.944;9.418;2022-08-19T07:26:25;98321.47;;;21.02;48.20
59154;BME280;44935;48.944;9.418;2022-08-19T07:28:53;98321.14;;;22.31;46.24
59154;BME280;44935;48.944;9.418;2022-08-19T07:31:23;98318.16;;;20.87;49.03
59154;BME280;44935;48.944;9.418;2022-08-19T07:33:51;98317.09;;;21.82;47.78
59154;BME280;44935;48.944;9.418;2022-08-19T07:36:21;98322.15;;;21.13;49.05
59154;BME280;44935;48.944;9.418;2022-08-19T07:38:50;98324.61;;;21.06;48.28
59154;BME280;44935;48.944;9.418;2022-08-19T07:41:20;98329.67;;;20.56;50.30
59154;BME280;44935;48.944;9.418;2022-08-19T07:43:48;98329.59;;;21.56;48.10
59154;BME280;44935;48.944;9.418;2022-08-19T07:46:16;98329.58;;;22.11;46.87
59154;BME280;44935;48.944;9.418;2022-08-19T07:48:44;98327.59;;;19.52;52.21
59154;BME280;44935;48.944;9.418;2022-08-19T07:51:12;98325.66;;;21.34;49.54
59154;BME280;44935;48.944;9.418;2022-08-19T07:53:41;98326.57;;;21.93;47.89
59154;BME280;44935;48.944;9.418;2022-08-19T07:56:09;98325.50;;;21.24;49.09
59154;BME280;44935;48.944;9.418;2022-08-19T07:58:39;98325.52;;;20.86;50.89
59154;BME280;44935;48.944;9.418;2022-08-19T08:01:08;98326.49;;;20.71;50.22
59154;BME280;44935;48.944;9.418;2022-08-19T08:03:36;98326.43;;;21.72;49.86
59154;BME280;44935;48.944;9.418;2022-08-19T08:06:03;98324.34;;;21.62;47.45
59154;BME280;44935;48.944;9.418;2022-08-19T08:08:31;98326.69;;;21.29;49.77
59154;BME280;44935;48.944;9.418;2022-08-19T08:10:59;98333.45;;;22.69;47.00
59154;BME280;44935;48.944;9.418;2022-08-19T08:13:26;98336.32;;;22.40;45.82
59154;BME280;44935;48.944;9.418;2022-08-19T08:15:53;98342.00;;;20.74;50.10
59154;BME280;44935;48.944;9.418;2022-08-19T08:18:20;98344.63;;;22.16;46.87
59154;BME280;44935;48.944;9.418;2022-08-19T08:20:47;98346.33;;;20.94;50.52
59154;BME280;44935;48.944;9.418;2022-08-19T08:23:15;98351.03;;;22.61;46.65
59154;BME280;44935;48.944;9.418;2022-08-19T08:25:41;98349.76;;;20.93;49.68
59154;BME280;44935;48.944;9.418;2022-08-19T08:28:09;98352.68;;;23.00;45.88
59154;BME280;44935;48.944;9.418;2022-08-19T08:30:36;98348.97;;;23.08;45.88
59154;BME280;44935;48.944;9.418;2022-08-19T08:33:03;98349.23;;;22.71;45.51
59154;BME280;44935;48.944;9.418;2022-08-19T08:35:30;98347.19;;;21.84;47.44
59154;BME280;44935;48.944;9.418;2022-08-19T08:37:57;98344.59;;;21.05;49.73
59154;BME280;44935;48.944;9.418;2022-08-19T08:40:29;98345.07;;;21.99;48.14
59154;BME280;44935;48.944;9.418;2022-08-19T08:43:00;98346.06;;;23.10;46.73
59154;BME280;44935;48.944;9.418;2022-08-19T08:45:30;98341.82;;;23.47;46.43
59154;BME280;44935;48.944;9.418;2022-08-19T08:48:04;98338.24;;;23.02;46.93
59154;BME280;44935;48.944;9.418;2022-08-19T08:50:42;98339.49;;;23.62;46.33
59154;BME280;44935;48.944;9.418;2022-08-19T08:53:18;98339.45;;;22.62;48.20
59154;BME280;44935;48.944;9.418;2022-08-19T08:55:46;98339.39;;;22.38;49.78
59154;BME280;44935;48.944;9.418;2022-08-19T08:58:16;98340.64;;;23.32;48.61
59154;BME280;44935;48.944;9.418;2022-08-19T09:00:46;98342.45;;;22.90;49.22
59154;BME280;44935;48.944;9.418;2022-08-19T09:03:19;98344.64;;;21.92;52.49
59154;BME280;44935;48.944;9.418;2022-08-19T09:05:56;98345.61;;;23.42;49.82
59154;BME280;44935;48.944;9.418;2022-08-19T09:08:36;98346.09;;;23.40;49.76
59154;BME280;44935;48.944;9.418;2022-08-19T09:11:08;98346.37;;;23.03;50.89
59154;BME280;44935;48.944;9.418;2022-08-19T09:13:44;98346.50;;;22.84;51.73
59154;BME280;44935;48.944;9.418;2022-08-19T09:16:16;98348.76;;;22.70;52.11
59154;BME280;44935;48.944;9.418;2022-08-19T09:18:47;98350.43;;;22.89;51.86
59154;BME280;44935;48.944;9.418;2022-08-19T09:21:15;98354.30;;;22.89;52.39
59154;BME280;44935;48.944;9.418;2022-08-19T09:23:43;98354.30;;;22.02;53.36
59154;BME280;44935;48.944;9.418;2022-08-19T09:26:13;98356.55;;;22.24;52.36
59154;BME280;44935;48.944;9.418;2022-08-19T09:28:41;98356.04;;;22.13;51.82
59154;BME280;44935;48.944;9.418;2022-08-19T09:31:08;98352.23;;;22.42;51.98
59154;BME280;44935;48.944;9.418;2022-08-19T09:33:35;98353.18;;;22.69;51.31
59154;BME280;44935;48.944;9.418;2022-08-19T09:36:05;98355.94;;;22.76;50.77
59154;BME280;44935;48.944;9.418;2022-08-19T09:38:33;98357.49;;;23.05;51.09
59154;BME280;44935;48.944;9.418;2022-08-19T09:41:04;98360.12;;;22.71;51.92
59154;BME280;44935;48.944;9.418;2022-08-19T09:43:31;98358.45;;;22.90;51.35
59154;BME280;44935;48.944;9.418;2022-08-19T09:45:58;98360.37;;;22.91;50.95
59154;BME280;44935;48.944;9.418;2022-08-19T09:48:25;98361.58;;;23.37;49.91
59154;BME280;44935;48.944;9.418;2022-08-19T09:50:53;98363.80;;;23.59;49.99
59154;BME280;44935;48.944;9.418;2022-08-19T09:53:20;98361.75;;;21.89;53.65
59154;BME280;44935;48.944;9.418;2022-08-19T09:55:48;98363.90;;;20.66;56.81
59154;BME280;44935;48.944;9.418;2022-08-19T09:58:15;98367.28;;;23.18;51.51
59154;BME280;44935;48.944;9.418;2022-08-19T10:00:42;98364.50;;;22.80;51.49
59154;BME280;44935;48.944;9.418;2022-08-19T10:03:09;98367.36;;;23.28;50.58
59154;BME280;44935;48.944;9.418;2022-08-19T10:05:36;98365.17;;;22.61;52.73
59154;BME280;44935;48.944;9.418;2022-08-19T10:08:03;98363.58;;;23.94;49.40
59154;BME280;44935;48.944;9.418;2022-08-19T10:10:29;98360.85;;;23.91;48.27
59154;BME280;44935;48.944;9.418;2022-08-19T10:13:01;98357.36;;;21.79;54.75
59154;BME280;44935;48.944;9.418;2022-08-19T10:15:28;98360.04;;;23.85;49.81
59154;BME280;44935;48.944;9.418;2022-08-19T10:17:54;98356.55;;;21.67;54.34
59154;BME280;44935;48.944;9.418;2022-08-19T10:20:21;98354.52;;;23.55;50.63
59154;BME280;44935;48.944;9.418;2022-08-19T10:22:48;98352.41;;;23.94;49.95
59154;BME280;44935;48.944;9.418;2022-08-19T10:25:15;98352.90;;;23.25;51.90
59154;BME280;44935;48.944;9.418;2022-08-19T10:27:42;98350.15;;;22.98;52.77
59154;BME280;44935;48.944;9.418;2022-08-19T10:30:10;98349.51;;;23.56;51.67
59154;BME280;44935;48.944;9.418;2022-08-19T10:32:37;98348.16;;;24.08;50.08
59154;BME280;44935;48.944;9.418;2022-08-19T10:35:05;98343.05;;;24.39;49.16
59154;BME280;44935;48.944;9.418;2022-08-19T10:37:33;98349.94;;;23.20;51.67
59154;BME280;44935;48.944;9.418;2022-08-19T10:40:01;98342.38;;;24.03;51.11
59154;BME280;44935;48.944;9.418;2022-08-19T10:42:27;98341.87;;;22.77;53.35
59154;BME280;44935;48.944;9.418;2022-08-19T10:44:54;98340.08;;;23.97;50.64
59154;BME280;44935;48.944;9.418;2022-08-19T10:47:22;98340.77;;;24.54;48.87
59154;BME280;44935;48.944;9.418;2022-08-19T10:49:49;98339.97;;;24.50;49.42
59154;BME280;44935;48.944;9.418;2022-08-19T10:52:16;98341.82;;;23.80;49.73
59154;BME280;44935;48.944;9.418;2022-08-19T10:54:43;98338.66;;;24.16;49.84
59154;BME280;44935;48.944;9.418;2022-08-19T10:57:09;98342.83;;;24.62;50.01
59154;BME280;44935;48.944;9.418;2022-08-19T10:59:37;98345.75;;;24.77;49.45
59154;BME280;44935;48.944;9.418;2022-08-19T11:02:08;98346.10;;;24.31;50.02
59154;BME280;44935;48.944;9.418;2022-08-19T11:04:38;98345.93;;;24.53;49.28
59154;BME280;44935;48.944;9.418;2022-08-19T11:07:06;98344.12;;;24.63;48.78
59154;BME280;44935;48.944;9.418;2022-08-19T11:09:38;98341.59;;;23.92;50.38
59154;BME280;44935;48.944;9.418;2022-08-19T11:12:07;98340.47;;;23.20;51.71
59154;BME280;44935;48.944;9.418;2022-08-19T11:14:35;98331.31;;;24.31;48.65
59154;BME280;44935;48.944;9.418;2022-08-19T11:17:04;98329.80;;;24.23;49.90
59154;BME280;44935;48.944;9.418;2022-08-19T11:19:32;98332.84;;;24.28;50.32
59154;BME280;44935;48.944;9.418;2022-08-19T11:21:59;98332.51;;;21.28;58.81
59154;BME280;44935;48.944;9.418;2022-08-19T11:24:26;98333.48;;;20.50;60.96
59154;BME280;44935;48.944;9.418;2022-08-19T11:27:00;98328.41;;;20.66;59.75
59154;BME280;44935;48.944;9.418;2022-08-19T11:29:27;98325.35;;;23.58;52.93
59154;BME280;44935;48.944;9.418;2022-08-19T11:31:55;98325.46;;;23.78;51.47
59154;BME280;44935;48.944;9.418;2022-08-19T11:34:24;98324.84;;;24.29;51.05
59154;BME280;44935;48.944;9.418;2022-08-19T11:36:51;98332.01;;;23.42;53.20
59154;BME280;44935;48.944;9.418;2022-08-19T11:39:20;98334.36;;;22.16;56.79
59154;BME280;44935;48.944;9.418;2022-08-19T11:41:48;98334.29;;;23.47;53.63
59154;BME280;44935;48.944;9.418;2022-08-19T11:44:16;98329.21;;;24.25;51.75
59154;BME280;44935;48.944;9.418;2022-08-19T11:46:44;98330.13;;;24.33;51.42
59154;BME280;44935;48.944;9.418;2022-08-19T11:49:12;98332.34;;;23.99;51.40
59154;BME280;44935;48.944;9.418;2022-08-19T11:51:39;98336.71;;;22.68;56.03
59154;BME280;44935;48.944;9.418;2022-08-19T11:54:06;98331.90;;;24.13;52.25
59154;BME280;44935;48.944;9.418;2022-08-19T11:56:33;98334.60;;;23.36;53.91
59154;BME280;44935;48.944;9.418;2022-08-19T11:59:00;98339.30;;;23.58;53.61
59154;BME280;44935;48.944;9.418;2022-08-19T12:01:28;98334.89;;;24.17;52.43
59154;BME280;44935;48.944;9.418;2022-08-19T12:03:56;98333.29;;;24.34;50.45
59154;BME280;44935;48.944;9.418;2022-08-19T12:06:25;98335.34;;;24.60;50.59
59154;BME280;44935;48.944;9.418;2022-08-19T12:08:53;98333.92;;;25.00;49.70
59154;BME280;44935;48.944;9.418;2022-08-19T12:11:20;98335.02;;;24.64;49.44
59154;BME280;44935;48.944;9.418;2022-08-19T12:13:47;98337.44;;;22.96;55.53
59154;BME280;44935;48.944;9.418;2022-08-19T12:16:16;98329.87;;;24.37;52.60
59154;BME280;44935;48.944;9.418;2022-08-19T12:18:44;98331.79;;;25.01;51.23
59154;BME280;44935;48.944;9.418;2022-08-19T12:21:12;98331.90;;;23.22;55.49
59154;BME280;44935;48.944;9.418;2022-08-19T12:23:39;98327.04;;;24.75;51.74
59154;BME280;44935;48.944;9.418;2022-08-19T12:26:08;98331.20;;;23.25;55.21
59154;BME280;44935;48.944;9.418;2022-08-19T12:28:36;98327.26;;;24.44;52.54
59154;BME280;44935;48.944;9.418;2022-08-19T12:31:03;98336.86;;;24.79;50.98
59154;BME280;44935;48.944;9.418;2022-08-19T12:33:31;98336.82;;;24.88;50.45
59154;BME280;44935;48.944;9.418;2022-08-19T12:36:01;98336.64;;;24.80;51.15
59154;BME280;44935;48.944;9.418;2022-08-19T12:38:29;98337.03;;;23.96;52.42
59154;BME280;44935;48.944;9.418;2022-08-19T12:40:56;98336.18;;;24.70;50.70
59154;BME280;44935;48.944;9.418;2022-08-19T12:43:23;98339.05;;;21.94;56.68
59154;BME280;44935;48.944;9.418;2022-08-19T12:45:50;98333.65;;;24.04;52.78
59154;BME280;44935;48.944;9.418;2022-08-19T12:48:18;98337.96;;;22.65;56.32
59154;BME280;44935;48.944;9.418;2022-08-19T12:50:56;98341.38;;;22.96;55.56
59154;BME280;44935;48.944;9.418;2022-08-19T12:53:23;98335.87;;;21.91;58.12
59154;BME280;44935;48.944;9.418;2022-08-19T12:55:55;98336.94;;;23.94;52.45
59154;BME280;44935;48.944;9.418;2022-08-19T12:58:22;98344.54;;;23.74;52.86
59154;BME280;44935;48.944;9.418;2022-08-19T13:00:49;98348.74;;;23.54;51.94
59154;BME280;44935;48.944;9.418;2022-08-19T13:03:16;98348.07;;;24.47;49.26
59154;BME280;44935;48.944;9.418;2022-08-19T13:05:42;98346.77;;;24.78;49.07